createdAt,value
2019-03-30T00:01:50.384Z,79.70
2019-03-30T00:04:21.456Z,80.00
2019-03-30T00:06:52.008Z,80.00
2019-03-30T00:09:22.503Z,80.00
2019-03-30T00:11:53.346Z,79.80
2019-03-30T00:14:24.168Z,79.70
2019-03-30T00:16:54.750Z,79.40
2019-03-30T00:19:34.795Z,79.40
2019-03-30T00:21:57.812Z,78.90
2019-03-30T00:24:29.111Z,78.50
2019-03-30T00:26:59.935Z,78.50
2019-03-30T00:29:30.662Z,78.60
2019-03-30T00:32:01.404Z,78.70
2019-03-30T00:34:32.274Z,78.50
2019-03-30T00:37:02.998Z,78.10
2019-03-30T00:39:33.495Z,78.10
2019-03-30T00:42:04.439Z,77.70
2019-03-30T00:44:36.920Z,77.50
2019-03-30T00:47:07.258Z,77.50
2019-03-30T00:49:48.374Z,77.00
2019-03-30T00:52:09.950Z,76.30
2019-03-30T00:54:40.579Z,75.90
2019-03-30T00:57:11.517Z,75.80
2019-03-30T00:59:42.120Z,75.30
2019-03-30T01:02:12.987Z,74.90
2019-03-30T01:04:43.814Z,74.60
2019-03-30T01:07:14.477Z,73.90
2019-03-30T01:09:45.095Z,73.60
2019-03-30T01:12:16.059Z,73.40
2019-03-30T01:14:46.470Z,73.20
2019-03-30T01:17:17.171Z,72.20
2019-03-30T01:19:47.968Z,71.80
2019-03-30T01:22:18.766Z,71.50
2019-03-30T01:24:49.234Z,71.20
2019-03-30T01:27:19.899Z,70.90
2019-03-30T01:29:50.484Z,70.50
2019-03-30T01:32:26.655Z,69.70
2019-03-30T01:34:57.480Z,69.90
2019-03-30T01:37:28.140Z,69.80
2019-03-30T01:39:58.637Z,68.90
2019-03-30T01:42:29.452Z,68.50
2019-03-30T01:45:01.343Z,68.70
2019-03-30T01:47:32.126Z,68.00
2019-03-30T01:50:16.192Z,67.20
2019-03-30T01:52:34.970Z,66.60
2019-03-30T01:55:07.633Z,66.00
2019-03-30T01:57:38.296Z,65.40
2019-03-30T02:00:10.788Z,64.60
2019-03-30T02:02:41.692Z,64.50
2019-03-30T02:05:12.342Z,63.90
2019-03-30T02:07:42.988Z,62.50
2019-03-30T02:10:14.496Z,61.50
2019-03-30T02:12:45.079Z,61.60
2019-03-30T02:15:15.799Z,60.50
2019-03-30T02:17:47.488Z,60.80
2019-03-30T02:20:30.385Z,61.00
2019-03-30T02:22:52.610Z,59.90
2019-03-30T02:25:23.743Z,60.00
2019-03-30T02:27:54.389Z,60.50
2019-03-30T02:30:26.630Z,59.80
2019-03-30T02:32:57.230Z,59.40
2019-03-30T02:35:28.028Z,59.40
2019-03-30T02:37:58.887Z,59.50
2019-03-30T02:40:29.461Z,59.90
2019-03-30T02:43:00.121Z,59.70
2019-03-30T02:45:31.160Z,59.40
2019-03-30T02:48:01.839Z,58.60
2019-03-30T02:50:48.305Z,58.40
2019-03-30T02:53:04.798Z,57.80
2019-03-30T02:55:35.563Z,58.10
2019-03-30T02:58:06.198Z,58.30
2019-03-30T03:00:37.347Z,57.50
2019-03-30T03:03:08.183Z,57.30
2019-03-30T03:05:38.842Z,55.70
2019-03-30T03:08:09.592Z,55.70
2019-03-30T03:10:40.518Z,55.00
2019-03-30T03:13:11.178Z,54.90
2019-03-30T03:15:42.149Z,53.80
2019-03-30T03:18:12.802Z,54.60
2019-03-30T03:20:43.528Z,53.20
2019-03-30T03:23:14.482Z,53.20
2019-03-30T03:25:45.583Z,52.00
2019-03-30T03:28:16.500Z,52.50
2019-03-30T03:30:47.587Z,51.20
2019-03-30T03:33:18.429Z,51.00
2019-03-30T03:35:49.184Z,50.90
2019-03-30T03:38:20.227Z,50.00
2019-03-30T03:40:51.827Z,49.70
2019-03-30T03:43:22.406Z,48.20
2019-03-30T03:45:53.495Z,44.60
2019-03-30T03:48:24.163Z,43.30
2019-03-30T03:50:57.458Z,42.80
2019-03-30T03:53:28.501Z,41.70
2019-03-30T03:55:59.915Z,45.20
2019-03-30T03:58:32.732Z,44.10
2019-03-30T04:01:03.931Z,43.80
2019-03-30T04:03:35.439Z,45.50
2019-03-30T04:06:07.867Z,42.60
2019-03-30T04:08:38.702Z,44.30
2019-03-30T04:11:09.642Z,44.60
2019-03-30T04:13:40.531Z,43.50
2019-03-30T04:16:11.503Z,43.20
2019-03-30T04:18:42.088Z,44.00
2019-03-30T04:21:13.210Z,42.90
2019-03-30T04:23:43.909Z,42.50
2019-03-30T04:26:14.549Z,41.80
2019-03-30T04:28:45.585Z,38.60
2019-03-30T04:31:16.304Z,41.50
2019-03-30T04:33:47.021Z,40.40
2019-03-30T04:36:17.944Z,42.40
2019-03-30T04:38:48.732Z,40.70
2019-03-30T04:41:19.592Z,40.90
2019-03-30T04:43:50.486Z,40.20
2019-03-30T04:46:21.019Z,41.30
2019-03-30T04:48:51.736Z,38.80
2019-03-30T04:51:22.735Z,38.60
2019-03-30T04:53:53.310Z,40.40
2019-03-30T04:56:23.704Z,39.70
2019-03-30T04:58:54.397Z,38.80
2019-03-30T05:01:25.113Z,37.60
2019-03-30T05:03:55.853Z,38.40
2019-03-30T05:06:26.670Z,39.20
2019-03-30T05:08:57.521Z,39.10
2019-03-30T05:11:27.922Z,39.20
2019-03-30T05:13:58.816Z,37.10
2019-03-30T05:16:29.592Z,37.90
2019-03-30T05:19:00.394Z,36.10
2019-03-30T05:21:31.357Z,34.70
2019-03-30T05:24:02.283Z,33.20
2019-03-30T05:26:33.160Z,34.00
2019-03-30T05:29:04.220Z,29.70
2019-03-30T05:31:35.070Z,31.60
2019-03-30T05:34:05.580Z,32.20
2019-03-30T05:36:36.616Z,34.50
2019-03-30T05:39:07.334Z,34.30
2019-03-30T05:41:38.067Z,34.80
2019-03-30T05:44:09.538Z,35.00
2019-03-30T05:46:40.234Z,33.90
2019-03-30T05:49:11.026Z,33.90
2019-03-30T05:54:26.443Z,34.50
2019-03-30T05:56:56.876Z,35.20
2019-03-30T05:59:27.601Z,34.00
2019-03-30T06:01:58.342Z,35.50
2019-03-30T06:04:29.378Z,34.10
2019-03-30T06:06:59.908Z,35.20
2019-03-30T06:09:30.519Z,34.70
2019-03-30T06:12:01.258Z,31.50
2019-03-30T06:14:32.043Z,32.20
2019-03-30T06:17:02.751Z,34.70
2019-03-30T06:19:33.592Z,33.80
2019-03-30T06:22:04.340Z,32.40
2019-03-30T06:24:34.917Z,32.30
2019-03-30T06:27:06.228Z,32.40
2019-03-30T06:29:36.848Z,30.40
2019-03-30T06:32:07.571Z,30.20
2019-03-30T06:34:38.495Z,30.60
2019-03-30T06:37:09.156Z,30.50
2019-03-30T06:39:39.888Z,31.30
2019-03-30T06:42:10.913Z,31.70
2019-03-30T06:44:41.519Z,30.50
2019-03-30T06:47:12.564Z,29.60
2019-03-30T06:49:43.696Z,29.30
2019-03-30T06:52:14.314Z,29.20
2019-03-30T06:54:44.931Z,30.60
2019-03-30T06:57:15.748Z,29.40
2019-03-30T06:59:46.523Z,30.70
2019-03-30T07:02:17.105Z,30.10
2019-03-30T07:04:48.171Z,29.80
2019-03-30T07:07:19.001Z,31.80
2019-03-30T07:09:51.849Z,31.50
2019-03-30T07:12:25.175Z,31.60
2019-03-30T07:14:55.880Z,29.00
2019-03-30T07:17:26.382Z,31.40
2019-03-30T07:19:57.076Z,32.40
2019-03-30T07:22:27.977Z,32.40
2019-03-30T07:24:58.526Z,32.20
2019-03-30T07:27:29.542Z,32.00
2019-03-30T07:30:00.398Z,32.50
2019-03-30T07:32:31.090Z,32.80
2019-03-30T07:35:01.859Z,32.50
2019-03-30T07:37:32.545Z,33.10
2019-03-30T07:40:03.300Z,31.60
2019-03-30T07:42:34.267Z,32.80
2019-03-30T07:45:06.052Z,33.00
2019-03-30T07:47:36.718Z,31.80
2019-03-30T07:50:09.212Z,31.70
2019-03-30T07:52:40.195Z,32.20
2019-03-30T07:55:10.829Z,33.10
2019-03-30T07:57:41.671Z,32.50
2019-03-30T08:00:12.546Z,31.90
2019-03-30T08:02:43.519Z,32.40
2019-03-30T08:05:14.702Z,33.00
2019-03-30T08:07:45.419Z,32.60
2019-03-30T08:10:16.066Z,32.30
2019-03-30T08:12:46.874Z,32.70
2019-03-30T08:15:18.045Z,33.10
2019-03-30T08:17:51.223Z,32.90
2019-03-30T08:20:22.031Z,30.80
2019-03-30T08:22:52.746Z,33.90
2019-03-30T08:25:23.314Z,33.10
2019-03-30T08:27:54.262Z,33.00
2019-03-30T08:30:24.808Z,34.00
2019-03-30T08:32:55.452Z,32.50
2019-03-30T08:35:26.346Z,33.40
2019-03-30T08:37:57.002Z,32.30
2019-03-30T08:40:27.694Z,33.80
2019-03-30T08:42:58.462Z,35.10
2019-03-30T08:45:29.195Z,33.00
2019-03-30T08:47:59.864Z,33.50
2019-03-30T08:50:31.295Z,32.20
2019-03-30T08:53:02.136Z,31.40
2019-03-30T08:55:32.936Z,32.30
2019-03-30T08:58:03.905Z,33.70
2019-03-30T09:00:37.061Z,32.80
2019-03-30T09:03:08.034Z,33.40
2019-03-30T09:05:39.125Z,32.60
2019-03-30T09:08:09.981Z,33.10
2019-03-30T09:10:40.605Z,31.50
2019-03-30T09:13:11.627Z,32.70
2019-03-30T09:15:42.321Z,31.80
2019-03-30T09:18:12.977Z,33.20
2019-03-30T09:20:43.670Z,34.10
2019-03-30T09:23:15.295Z,34.60
2019-03-30T09:25:45.815Z,34.40
2019-03-30T09:28:16.783Z,32.20
2019-03-30T09:30:47.462Z,31.60
2019-03-30T09:33:18.255Z,31.10
2019-03-30T09:35:49.349Z,32.40
2019-03-30T09:38:19.944Z,33.50
2019-03-30T09:40:50.734Z,33.20
2019-03-30T09:43:21.567Z,33.80
2019-03-30T09:45:52.094Z,35.20
2019-03-30T09:48:22.914Z,33.30
2019-03-30T09:50:53.872Z,33.30
2019-03-30T09:53:24.736Z,34.90
2019-03-30T09:55:55.448Z,33.50
2019-03-30T09:58:26.599Z,32.20
2019-03-30T10:00:57.279Z,32.60
2019-03-30T10:03:28.031Z,31.90
2019-03-30T10:05:58.822Z,31.60
2019-03-30T10:08:29.501Z,33.00
2019-03-30T10:11:00.134Z,34.10
2019-03-30T10:13:31.085Z,33.30
2019-03-30T10:16:01.694Z,34.10
2019-03-30T10:18:32.230Z,34.60
2019-03-30T10:21:03.207Z,34.70
2019-03-30T10:23:33.731Z,32.90
2019-03-30T10:26:04.476Z,32.30
2019-03-30T10:28:35.575Z,33.90
2019-03-30T10:31:06.195Z,34.30
2019-03-30T10:33:36.842Z,33.90
2019-03-30T10:36:07.612Z,34.50
2019-03-30T10:38:38.277Z,34.50
2019-03-30T10:41:08.703Z,34.10
2019-03-30T10:43:39.482Z,34.90
2019-03-30T10:46:10.244Z,35.20
2019-03-30T10:48:40.986Z,35.40
2019-03-30T10:51:12.063Z,35.40
2019-03-30T10:53:42.628Z,36.20
2019-03-30T10:56:14.077Z,36.40
2019-03-30T10:58:45.136Z,36.00
2019-03-30T11:01:15.718Z,36.50
2019-03-30T11:03:46.186Z,37.20
2019-03-30T11:06:17.080Z,37.20
2019-03-30T11:08:47.954Z,37.50
2019-03-30T11:11:18.681Z,37.70
2019-03-30T11:13:49.801Z,37.60
2019-03-30T11:16:20.510Z,37.60
2019-03-30T11:18:51.130Z,37.90
2019-03-30T11:21:21.966Z,38.30
2019-03-30T11:23:52.712Z,38.90
2019-03-30T11:26:23.584Z,39.40
2019-03-30T11:28:54.488Z,39.50
2019-03-30T11:31:24.925Z,39.70
2019-03-30T11:33:55.582Z,40.00
2019-03-30T11:36:26.451Z,40.00
2019-03-30T11:38:59.746Z,40.00
2019-03-30T11:41:30.656Z,40.50
2019-03-30T11:44:01.066Z,40.80
2019-03-30T11:46:31.959Z,41.30
2019-03-30T11:49:02.725Z,41.40
2019-03-30T11:51:36.487Z,41.60
2019-03-30T11:54:07.750Z,41.90
2019-03-30T11:56:39.020Z,42.30
2019-03-30T11:59:10.075Z,42.80
2019-03-30T12:01:41.495Z,42.90
2019-03-30T12:04:12.518Z,43.30
2019-03-30T12:06:43.354Z,43.60
2019-03-30T12:09:14.206Z,43.80
2019-03-30T12:11:45.324Z,43.90
2019-03-30T12:14:16.229Z,43.70
2019-03-30T12:16:47.015Z,44.20
2019-03-30T12:19:18.015Z,44.70
2019-03-30T12:21:48.754Z,45.00
2019-03-30T12:24:19.514Z,45.20
2019-03-30T12:26:50.460Z,45.10
2019-03-30T12:29:21.028Z,45.40
2019-03-30T12:31:51.912Z,45.70
2019-03-30T12:34:23.113Z,46.30
2019-03-30T12:36:55.842Z,46.70
2019-03-30T12:39:25.697Z,47.40
2019-03-30T12:41:56.728Z,47.90
2019-03-30T12:44:27.381Z,48.20
2019-03-30T12:46:58.110Z,48.30
2019-03-30T12:49:29.133Z,48.10
2019-03-30T12:51:59.860Z,48.00
2019-03-30T12:54:30.589Z,47.80
2019-03-30T12:57:01.426Z,47.80
2019-03-30T12:59:32.111Z,47.80
2019-03-30T13:02:02.777Z,48.00
2019-03-30T13:04:35.876Z,48.40
2019-03-30T13:07:06.718Z,48.50
2019-03-30T13:09:37.237Z,48.70
2019-03-30T13:12:08.289Z,49.00
2019-03-30T13:14:38.912Z,49.50
2019-03-30T13:17:09.534Z,49.90
2019-03-30T13:19:40.691Z,49.70
2019-03-30T13:22:11.461Z,49.70
2019-03-30T13:24:42.067Z,50.00
2019-03-30T13:27:13.208Z,50.10
2019-03-30T13:29:43.796Z,50.40
2019-03-30T13:32:14.650Z,50.50
2019-03-30T13:34:46.137Z,50.70
2019-03-30T13:37:18.689Z,50.60
2019-03-30T13:39:50.321Z,50.60
2019-03-30T13:42:21.093Z,50.70
2019-03-30T13:44:51.682Z,51.00
2019-03-30T13:47:22.791Z,50.90
2019-03-30T13:49:53.488Z,50.70
2019-03-30T13:52:24.318Z,51.00
2019-03-30T13:54:55.238Z,51.10
2019-03-30T13:57:25.921Z,51.50
2019-03-30T13:59:56.468Z,51.50
2019-03-30T14:02:27.393Z,51.90
2019-03-30T14:04:58.141Z,52.20
2019-03-30T14:07:28.864Z,52.50
2019-03-30T14:09:59.579Z,52.40
2019-03-30T14:12:29.989Z,52.50
2019-03-30T14:15:00.630Z,52.80
2019-03-30T14:17:31.944Z,52.80
2019-03-30T14:20:02.716Z,52.90
2019-03-30T14:22:33.727Z,53.20
2019-03-30T14:25:04.739Z,53.50
2019-03-30T14:27:35.259Z,53.40
2019-03-30T14:30:07.353Z,53.50
2019-03-30T14:32:38.140Z,53.80
2019-03-30T14:35:09.477Z,54.50
2019-03-30T14:37:40.367Z,54.50
2019-03-30T14:40:11.221Z,55.10
2019-03-30T14:42:41.986Z,55.50
2019-03-30T14:45:13.289Z,55.60
2019-03-30T14:47:44.061Z,55.60
2019-03-30T14:50:14.817Z,55.60
2019-03-30T14:52:46.189Z,55.40
2019-03-30T14:55:16.753Z,55.30
2019-03-30T14:57:47.659Z,55.00
2019-03-30T15:00:18.805Z,54.80
2019-03-30T15:02:49.656Z,54.70
2019-03-30T15:05:20.252Z,54.50
2019-03-30T15:07:51.438Z,54.50
2019-03-30T15:10:22.017Z,54.60
2019-03-30T15:12:52.711Z,54.70
2019-03-30T15:15:24.612Z,54.90
2019-03-30T15:17:55.318Z,55.30
2019-03-30T15:20:28.741Z,55.40
2019-03-30T15:23:01.472Z,55.90
2019-03-30T15:25:32.027Z,55.60
2019-03-30T15:28:02.968Z,56.10
2019-03-30T15:30:33.613Z,56.30
2019-03-30T15:33:04.400Z,56.30
2019-03-30T15:35:35.417Z,56.80
2019-03-30T15:38:06.224Z,56.60
2019-03-30T15:40:37.004Z,56.60
2019-03-30T15:43:07.773Z,56.60
2019-03-30T15:45:38.652Z,56.60
2019-03-30T15:48:09.365Z,56.90
2019-03-30T15:50:40.051Z,57.20
2019-03-30T15:53:10.625Z,57.00
2019-03-30T15:55:41.223Z,57.10
2019-03-30T15:58:12.046Z,56.90
2019-03-30T16:00:43.907Z,56.90
2019-03-30T16:03:14.895Z,57.10
2019-03-30T16:05:46.653Z,57.00
2019-03-30T16:08:17.335Z,57.20
2019-03-30T16:10:48.015Z,57.30
2019-03-30T16:13:18.858Z,57.60
2019-03-30T16:15:49.652Z,57.60
2019-03-30T16:18:20.414Z,57.60
2019-03-30T16:20:51.628Z,57.80
2019-03-30T16:23:22.294Z,58.00
2019-03-30T16:25:53.565Z,58.00
2019-03-30T16:28:24.552Z,58.10
2019-03-30T16:30:55.121Z,58.30
2019-03-30T16:33:25.831Z,58.40
2019-03-30T16:35:56.595Z,58.60
2019-03-30T16:38:27.388Z,58.50
2019-03-30T16:40:58.051Z,58.50
2019-03-30T16:43:28.765Z,58.60
2019-03-30T16:45:59.489Z,58.90
2019-03-30T16:48:30.327Z,58.90
2019-03-30T16:51:01.395Z,58.80
2019-03-30T16:53:31.977Z,58.60
2019-03-30T16:56:02.827Z,58.80
2019-03-30T16:58:33.556Z,58.80
2019-03-30T17:01:04.319Z,58.60
2019-03-30T17:03:34.739Z,58.60
2019-03-30T17:06:05.801Z,58.70
2019-03-30T17:08:36.564Z,58.70
2019-03-30T17:11:07.286Z,59.10
2019-03-30T17:13:38.382Z,59.00
2019-03-30T17:16:08.980Z,59.10
2019-03-30T17:18:39.675Z,59.30
2019-03-30T17:21:11.047Z,59.30
2019-03-30T17:23:41.752Z,59.30
2019-03-30T17:26:12.493Z,59.20
2019-03-30T17:28:43.225Z,58.90
2019-03-30T17:31:14.034Z,58.90
2019-03-30T17:33:44.843Z,59.20
2019-03-30T17:36:15.770Z,59.70
2019-03-30T17:38:46.563Z,59.90
2019-03-30T17:41:17.210Z,60.00
2019-03-30T17:43:48.440Z,60.40
2019-03-30T17:46:19.493Z,60.50
2019-03-30T17:48:50.157Z,60.90
2019-03-30T17:51:20.719Z,61.40
2019-03-30T17:53:51.185Z,61.50
2019-03-30T17:56:21.976Z,62.30
2019-03-30T17:58:52.695Z,62.00
2019-03-30T18:01:23.214Z,62.20
2019-03-30T18:03:54.008Z,62.10
2019-03-30T18:06:24.836Z,62.90
2019-03-30T18:08:55.548Z,62.00
2019-03-30T18:11:26.306Z,61.80
2019-03-30T18:13:57.293Z,61.20
2019-03-30T18:16:27.989Z,61.30
2019-03-30T18:18:58.660Z,61.40
2019-03-30T18:21:29.601Z,61.20
2019-03-30T18:24:00.191Z,61.40
2019-03-30T18:26:31.162Z,61.40
2019-03-30T18:29:01.741Z,61.50
2019-03-30T18:31:34.727Z,61.60
2019-03-30T18:34:05.468Z,61.60
2019-03-30T18:36:36.377Z,61.40
2019-03-30T18:39:09.778Z,61.00
2019-03-30T18:41:40.411Z,61.00
2019-03-30T18:44:11.284Z,61.20
2019-03-30T18:46:42.066Z,61.10
2019-03-30T18:49:12.850Z,61.50
2019-03-30T18:51:45.278Z,61.50
2019-03-30T18:54:16.240Z,61.90
2019-03-30T18:56:46.776Z,62.30
2019-03-30T18:59:17.521Z,62.30
2019-03-30T19:01:48.725Z,62.50
2019-03-30T19:04:19.499Z,62.50
2019-03-30T19:06:50.186Z,62.80
2019-03-30T19:09:21.182Z,62.60
2019-03-30T19:11:52.114Z,62.80
2019-03-30T19:14:22.847Z,63.20
2019-03-30T19:16:53.784Z,63.30
2019-03-30T19:19:24.580Z,63.20
2019-03-30T19:21:55.127Z,63.40
2019-03-30T19:24:26.031Z,63.50
2019-03-30T19:26:56.829Z,63.70
2019-03-30T19:29:27.432Z,64.00
2019-03-30T19:31:58.342Z,64.10
2019-03-30T19:34:29.111Z,64.30
2019-03-30T19:36:59.774Z,64.30
2019-03-30T19:39:30.617Z,64.60
2019-03-30T19:42:01.246Z,64.40
2019-03-30T19:44:31.962Z,64.50
2019-03-30T19:47:02.856Z,65.80
2019-03-30T19:49:33.529Z,64.80
2019-03-30T19:52:05.692Z,65.20
2019-03-30T19:54:36.455Z,65.40
2019-03-30T19:57:07.064Z,65.60
2019-03-30T19:59:37.796Z,65.50
2019-03-30T20:02:08.887Z,65.30
2019-03-30T20:04:39.631Z,65.40
2019-03-30T20:07:10.436Z,65.50
2019-03-30T20:09:41.745Z,66.10
2019-03-30T20:12:12.518Z,66.40
2019-03-30T20:14:44.405Z,66.50
2019-03-30T20:17:15.081Z,66.80
2019-03-30T20:19:45.878Z,66.50
2019-03-30T20:22:16.368Z,66.90
2019-03-30T20:24:47.303Z,66.80
2019-03-30T20:27:18.162Z,66.80
2019-03-30T20:29:48.906Z,66.90
2019-03-30T20:32:19.615Z,67.40
2019-03-30T20:34:50.381Z,67.50
2019-03-30T20:37:21.091Z,67.20
2019-03-30T20:39:52.011Z,68.30
2019-03-30T20:42:22.789Z,67.50
2019-03-30T20:44:53.454Z,67.60
2019-03-30T20:47:24.333Z,67.90
2019-03-30T20:49:55.131Z,68.00
2019-03-30T20:52:25.878Z,68.30
2019-03-30T20:54:56.732Z,68.50
2019-03-30T20:57:27.623Z,68.70
2019-03-30T20:59:58.372Z,68.80
2019-03-30T21:02:29.700Z,69.80
2019-03-30T21:05:00.343Z,69.00
2019-03-30T21:07:31.058Z,69.10
2019-03-30T21:10:02.207Z,69.40
2019-03-30T21:12:32.517Z,69.50
2019-03-30T21:15:03.256Z,69.40
2019-03-30T21:17:34.605Z,69.80
2019-03-30T21:20:06.275Z,69.90
2019-03-30T21:22:37.091Z,69.90
2019-03-30T21:25:08.294Z,69.80
2019-03-30T21:27:38.951Z,70.30
2019-03-30T21:30:10.798Z,70.60
2019-03-30T21:32:41.854Z,70.50
2019-03-30T21:35:12.512Z,70.60
2019-03-30T21:37:42.945Z,70.40
2019-03-30T21:40:13.857Z,70.70
2019-03-30T21:42:44.564Z,70.90
2019-03-30T21:45:15.334Z,71.10
2019-03-30T21:47:46.315Z,71.30
2019-03-30T21:50:17.083Z,71.70
2019-03-30T21:52:48.007Z,71.90
2019-03-30T21:55:19.118Z,71.90
2019-03-30T21:57:49.952Z,71.90
2019-03-30T22:00:23.643Z,72.10
2019-03-30T22:02:54.103Z,72.00
2019-03-30T22:05:24.644Z,72.30
2019-03-30T22:07:55.795Z,72.40
2019-03-30T22:10:28.515Z,72.40
2019-03-30T22:12:59.414Z,72.50
2019-03-30T22:15:30.845Z,72.60
2019-03-30T22:18:01.433Z,72.70
2019-03-30T22:20:32.344Z,72.60
2019-03-30T22:23:03.249Z,72.50
2019-03-30T22:25:33.797Z,73.00
2019-03-30T22:28:05.108Z,73.00
2019-03-30T22:30:35.778Z,73.30
2019-03-30T22:33:06.452Z,73.30
2019-03-30T22:35:37.122Z,73.10
2019-03-30T22:38:08.493Z,73.20
2019-03-30T22:40:41.452Z,73.60
2019-03-30T22:43:11.426Z,73.80
2019-03-30T22:45:44.799Z,74.30
2019-03-30T22:48:15.668Z,74.00
2019-03-30T22:50:46.210Z,73.80
2019-03-30T22:53:16.863Z,73.80
2019-03-30T22:55:47.842Z,74.20
2019-03-30T22:58:18.515Z,74.20
2019-03-30T23:00:50.683Z,74.30
2019-03-30T23:03:21.772Z,74.50
2019-03-30T23:05:52.428Z,74.60
2019-03-30T23:08:23.148Z,74.50
2019-03-30T23:10:54.076Z,74.60
2019-03-30T23:13:24.893Z,75.60
2019-03-30T23:15:55.646Z,75.00
2019-03-30T23:18:26.383Z,74.80
2019-03-30T23:20:57.174Z,74.70
2019-03-30T23:23:27.867Z,74.80
2019-03-30T23:25:58.588Z,74.90
2019-03-30T23:28:29.226Z,74.70
2019-03-30T23:30:59.807Z,75.20
2019-03-30T23:33:30.599Z,75.30
2019-03-30T23:36:01.085Z,75.10
2019-03-30T23:38:31.871Z,75.50
2019-03-30T23:41:02.695Z,76.00
2019-03-30T23:43:33.310Z,75.90
2019-03-30T23:46:04.103Z,75.90
2019-03-30T23:48:34.995Z,75.60
2019-03-30T23:51:05.771Z,75.80
2019-03-30T23:53:36.420Z,75.90
2019-03-30T23:56:09.868Z,75.90
2019-03-30T23:58:40.618Z,75.80
